Time;durP1;ratioP1;P1;durP2;ratioP2;P2;SDS_P1;SDS_P2;PMS_P1;PMS_P2;Temp;Humidity;BMP_temperature;BMP_pressure;BME280_temperature;BME280_humidity;BME280_pressure;Samples;Min_cycle;Max_cycle;Signal;HPM_P1;HPM_P2
2022/11/27 00:00:46;;;;;;;24.33;11.10;;;;;;;4.09;83.09;102457.50;5049136;28;20045;-73
2022/11/27 00:03:14;;;;;;;22.27;11.07;;;;;;;4.08;83.01;102450.56;5052489;28;20047;-73
2022/11/27 00:05:40;;;;;;;22.63;9.27;;;;;;;4.00;82.12;102447.97;5049242;28;20049;-73
2022/11/27 00:08:07;;;;;;;20.73;10.27;;;;;;;4.08;81.38;102445.38;5049311;28;20045;-73
2022/11/27 00:10:33;;;;;;;19.75;10.05;;;;;;;3.71;81.73;102445.28;5039344;28;20048;-73
2022/11/27 00:12:59;;;;;;;22.67;10.32;;;;;;;3.57;82.13;102449.56;5047919;28;20040;-73
2022/11/27 00:15:26;;;;;;;18.73;10.20;;;;;;;3.71;82.33;102449.59;5049480;28;20409;-73
2022/11/27 00:17:52;;;;;;;20.25;10.00;;;;;;;3.70;82.54;102438.34;5052427;28;20067;-73
2022/11/27 00:20:20;;;;;;;34.20;9.43;;;;;;;3.49;83.38;102440.00;5048178;27;20451;-73
2022/11/27 00:22:47;;;;;;;26.33;10.13;;;;;;;3.37;84.09;102428.72;5049777;27;20515;-73
2022/11/27 00:25:13;;;;;;;16.98;9.35;;;;;;;3.07;84.97;102422.53;5040017;28;20518;-73
2022/11/27 00:27:40;;;;;;;24.50;10.38;;;;;;;3.36;89.15;102411.41;5049966;28;20419;-73
2022/11/27 00:30:08;;;;;;;25.60;11.60;;;;;;;3.50;90.56;102414.09;5049580;28;20056;-73
2022/11/27 00:32:34;;;;;;;27.48;11.60;;;;;;;3.86;88.74;102405.53;5048332;28;20499;-73
2022/11/27 00:35:00;;;;;;;21.15;9.75;;;;;;;3.88;87.65;102396.88;5056920;28;20659;-73
2022/11/27 00:37:28;;;;;;;22.75;9.88;;;;;;;3.68;89.52;102387.34;5049212;28;20059;-73
2022/11/27 00:39:55;;;;;;;22.90;10.75;;;;;;;3.87;88.58;102390.00;5039516;28;20047;-73
2022/11/27 00:42:21;;;;;;;26.83;11.80;;;;;;;3.59;91.95;102380.38;5049118;28;20063;-73
2022/11/27 00:44:47;;;;;;;23.52;10.95;;;;;;;3.79;89.87;102372.66;5049003;28;20055;-73
2022/11/27 00:47:14;;;;;;;23.40;10.60;;;;;;;3.09;92.73;102367.25;5053766;28;20070;-73
2022/11/27 00:49:40;;;;;;;29.80;10.55;;;;;;;3.48;90.66;102361.31;5048981;28;20048;-73
2022/11/27 00:52:07;;;;;;;33.85;12.30;;;;;;;3.85;91.23;102357.97;5048791;28;20048;-73
2022/11/27 00:54:35;;;;;;;32.47;11.85;;;;;;;3.23;94.44;102362.09;5039606;28;20129;-73
2022/11/27 00:57:01;;;;;;;26.60;11.70;;;;;;;3.51;93.92;102358.75;5047125;28;20044;-73
2022/11/27 00:59:28;;;;;;;27.10;11.90;;;;;;;3.52;94.93;102365.66;5048439;28;20047;-73
2022/11/27 01:01:54;;;;;;;28.38;12.25;;;;;;;3.77;94.71;102354.47;5043635;28;20047;-73
2022/11/27 01:04:21;;;;;;;20.67;10.55;;;;;;;3.38;92.74;102360.44;5055378;28;20048;-73
2022/11/27 01:06:47;;;;;;;24.75;11.85;;;;;;;3.54;94.23;102363.97;5061226;28;20063;-73
2022/11/27 01:09:14;;;;;;;32.08;12.73;;;;;;;3.51;94.05;102366.53;5038382;28;20090;-73
2022/11/27 01:11:42;;;;;;;23.10;10.88;;;;;;;3.75;92.55;102361.41;5048145;28;20049;-73
2022/11/27 01:14:14;;;;;;;27.88;12.27;;;;;;;3.54;93.11;102363.97;5048528;28;20040;-73
2022/11/27 01:16:41;;;;;;;24.27;12.55;;;;;;;3.68;93.22;102358.81;5046416;28;20048;-73
2022/11/27 01:19:07;;;;;;;27.15;11.02;;;;;;;4.18;90.99;102356.25;5054001;28;20048;-73
2022/11/27 01:21:35;;;;;;;31.00;11.77;;;;;;;4.33;89.09;102348.47;5049307;28;20492;-73
2022/11/27 01:24:02;;;;;;;31.67;12.15;;;;;;;4.23;89.66;102364.91;5041466;28;20119;-73
2022/11/27 01:26:29;;;;;;;32.55;11.13;;;;;;;4.18;90.01;102364.03;5076047;28;20048;-73
2022/11/27 01:28:58;;;;;;;24.40;11.02;;;;;;;4.10;90.34;102381.38;5049457;28;20044;-73
2022/11/27 01:31:27;;;;;;;23.70;10.57;;;;;;;4.04;91.13;102389.13;5039624;28;20058;-73
2022/11/27 01:33:56;;;;;;;27.08;10.93;;;;;;;3.84;91.20;102376.97;5059375;28;20039;-73
2022/11/27 01:36:23;;;;;;;25.02;12.73;;;;;;;3.88;91.91;102376.13;5069771;28;20411;-73
2022/11/27 01:38:49;;;;;;;18.42;10.23;;;;;;;4.00;89.15;102371.81;5058597;28;20416;-73
2022/11/27 01:41:18;;;;;;;23.98;10.60;;;;;;;3.87;88.90;102368.34;5049235;28;20049;-73
2022/11/27 01:43:46;;;;;;;24.65;11.90;;;;;;;3.74;89.15;102377.84;5048027;28;20052;-73
2022/11/27 01:46:37;;;;;;;25.52;10.38;;;;;;;3.85;90.94;102370.94;5055751;28;20047;-73
2022/11/27 01:49:25;;;;;;;27.67;11.32;;;;;;;3.41;94.68;102370.81;5046206;28;20055;-73
2022/11/27 01:51:56;;;;;;;28.88;11.35;;;;;;;3.44;92.90;102367.38;5068198;28;20048;-73
2022/11/27 01:54:26;;;;;;;18.02;10.23;;;;;;;3.68;89.92;102367.44;5059271;28;20492;-73
2022/11/27 01:56:58;;;;;;;27.58;9.70;;;;;;;3.89;89.50;102367.50;5068421;28;20048;-73
2022/11/27 01:59:25;;;;;;;;;;;;;;;3.81;89.17;102371.78;5068923;28;20063;-73
2022/11/27 02:01:53;;;;;;;24.50;10.00;;;;;;;3.74;89.21;102364.00;5048876;28;19927;-73
2022/11/27 02:04:19;;;;;;;24.73;11.25;;;;;;;3.51;89.22;102360.50;5059021;28;20523;-73
2022/11/27 02:06:46;;;;;;;25.77;10.80;;;;;;;3.75;88.45;102364.00;5051989;28;20037;-73
2022/11/27 02:09:13;;;;;;;22.05;9.25;;;;;;;3.69;87.48;102358.81;5038287;28;20504;-73
2022/11/27 02:11:46;;;;;;;27.67;10.55;;;;;;;3.80;86.88;102353.66;5048028;28;20067;-73
2022/11/27 02:14:23;;;;;;;23.73;10.88;;;;;;;3.86;86.31;102346.72;5044670;28;20416;-74
2022/11/27 02:16:58;;;;;;;20.73;10.38;;;;;;;4.00;86.06;102351.06;5055576;28;20479;-73
2022/11/27 02:19:38;;;;;;;30.80;9.75;;;;;;;3.89;84.65;102353.66;5047939;28;20411;-73
2022/11/27 02:22:11;;;;;;;22.17;10.75;;;;;;;3.93;85.41;102361.44;5071642;28;20044;-73
2022/11/27 02:24:50;;;;;;;24.23;10.73;;;;;;;3.74;84.40;102359.66;5052353;28;20048;-73
2022/11/27 02:27:38;;;;;;;21.63;8.95;;;;;;;3.82;83.00;102350.19;5046078;28;20393;-74
2022/11/27 02:30:07;;;;;;;15.20;9.00;;;;;;;3.84;82.34;102353.63;5036976;27;20049;-74
2022/11/27 02:32:39;;;;;;;21.63;8.30;;;;;;;3.65;82.38;102351.88;5048180;27;20433;-73
2022/11/27 02:35:12;;;;;;;15.95;9.48;;;;;;;3.64;83.07;102341.50;5056612;27;20051;-73
2022/11/27 02:37:46;;;;;;;22.30;9.38;;;;;;;3.49;85.24;102339.72;5046267;28;20084;-73
2022/11/27 02:40:18;;;;;;;22.85;10.93;;;;;;;3.47;84.53;102344.06;5049198;28;20052;-73
2022/11/27 02:42:49;;;;;;;15.95;8.43;;;;;;;3.60;84.56;102340.63;5041731;28;20040;-73
2022/11/27 02:45:22;;;;;;;16.15;8.55;;;;;;;3.80;82.74;102338.09;5051584;28;20044;-73
2022/11/27 02:47:50;;;;;;;18.42;8.43;;;;;;;3.60;81.27;102332.84;5058736;28;20511;-74
2022/11/27 02:50:20;;;;;;;27.25;8.77;;;;;;;3.56;81.72;102338.88;5064757;28;20120;-74
2022/11/27 02:52:49;;;;;;;17.35;8.93;;;;;;;3.56;81.31;102333.69;5051295;28;20048;-73
2022/11/27 02:55:17;;;;;;;22.00;8.75;;;;;;;3.35;80.47;102331.06;5040445;28;20052;-73
2022/11/27 02:57:45;;;;;;;20.80;8.98;;;;;;;3.20;81.10;102316.31;5055093;28;20040;-74
2022/11/27 03:00:13;;;;;;;22.52;9.20;;;;;;;2.92;81.71;102322.22;5050436;28;20047;-73
2022/11/27 03:02:45;;;;;;;20.73;9.23;;;;;;;2.91;85.54;102318.78;5053472;27;20052;-73
2022/11/27 03:05:16;;;;;;;21.10;8.75;;;;;;;2.76;85.88;102321.28;5087416;27;20073;-73
2022/11/27 03:07:47;;;;;;;20.23;9.10;;;;;;;2.55;86.75;102318.56;5053864;28;20045;-73
2022/11/27 03:10:19;;;;;;;28.25;9.63;;;;;;;2.69;88.23;102313.47;5051446;28;20090;-73
2022/11/27 03:12:46;;;;;;;20.33;9.57;;;;;;;2.87;89.19;102317.03;5051085;28;20427;-73
2022/11/27 03:15:13;;;;;;;22.90;9.85;;;;;;;2.96;89.20;102320.53;5042429;28;20044;-74
2022/11/27 03:17:52;;;;;;;23.85;9.50;;;;;;;2.86;87.56;102312.72;5059513;28;20055;-73
2022/11/27 03:20:23;;;;;;;19.27;9.43;;;;;;;2.90;86.68;102317.03;5050823;28;20044;-73
2022/11/27 03:22:49;;;;;;;23.30;8.60;;;;;;;3.07;85.71;102305.91;5050704;28;20044;-73
2022/11/27 03:25:16;;;;;;;19.05;9.75;;;;;;;2.78;85.83;102304.03;5050103;28;20048;-73
2022/11/27 03:27:48;;;;;;;21.45;9.45;;;;;;;2.57;89.55;102292.69;5050567;28;20045;-73
2022/11/27 03:30:14;;;;;;;19.77;9.63;;;;;;;2.54;89.63;102290.97;5050335;28;20052;-73
2022/11/27 03:32:43;;;;;;;23.90;10.63;;;;;;;2.57;90.07;102290.09;5050543;28;20045;-73
2022/11/27 03:35:13;;;;;;;26.98;10.30;;;;;;;3.07;89.58;102292.94;5055800;28;20044;-73
2022/11/27 03:37:39;;;;;;;25.88;9.63;;;;;;;3.18;87.49;102292.09;5071190;28;20488;-74
2022/11/27 03:40:08;;;;;;;27.65;10.30;;;;;;;3.05;87.57;102290.34;5051426;28;20045;-73
2022/11/27 03:42:50;;;;;;;26.92;10.15;;;;;;;2.87;89.24;102298.91;5040870;28;20052;-73
2022/11/27 03:45:27;;;;;;;26.20;10.18;;;;;;;3.09;88.05;102291.22;5044352;28;20048;-73
2022/11/27 03:48:06;;;;;;;18.15;9.93;;;;;;;3.11;86.86;102292.06;5042591;28;20550;-73
2022/11/27 03:50:46;;;;;;;19.45;9.75;;;;;;;3.17;87.54;102294.69;5050515;28;20071;-73
2022/11/27 03:53:23;;;;;;;22.77;10.18;;;;;;;2.80;87.74;102284.19;5040713;28;20079;-73
2022/11/27 03:55:57;;;;;;;24.25;10.15;;;;;;;2.78;90.55;102274.66;5048535;28;20053;-73
2022/11/27 03:58:33;;;;;;;22.00;10.75;;;;;;;3.11;88.60;102271.34;5040519;28;20045;-75
2022/11/27 04:01:03;;;;;;;31.25;11.38;;;;;;;2.88;89.48;102282.47;5049311;28;20496;-73
2022/11/27 04:03:31;;;;;;;31.20;11.15;;;;;;;2.90;90.73;102282.50;5049949;28;20045;-74
2022/11/27 04:05:58;;;;;;;30.67;12.27;;;;;;;2.72;93.78;102278.09;5058675;28;20044;-73
2022/11/27 04:08:25;;;;;;;28.75;12.02;;;;;;;3.16;92.22;102274.81;5049633;28;20049;-73
2022/11/27 04:10:51;;;;;;;29.08;11.02;;;;;;;3.34;91.83;102287.81;5040937;28;20064;-73
2022/11/27 04:13:17;;;;;;;25.10;11.65;;;;;;;3.79;89.17;102284.44;5049848;28;20407;-75
2022/11/27 04:15:44;;;;;;;36.75;11.20;;;;;;;3.73;88.76;102282.69;5051509;28;20487;-74
2022/11/27 04:18:11;;;;;;;29.52;10.82;;;;;;;3.81;88.10;102283.56;5052288;28;20044;-75
2022/11/27 04:20:39;;;;;;;29.67;11.60;;;;;;;3.93;86.69;102281.00;5070175;28;20106;-74
2022/11/27 04:23:05;;;;;;;29.83;11.27;;;;;;;3.52;87.94;102281.81;5052901;27;20044;-73
2022/11/27 04:25:32;;;;;;;24.65;10.85;;;;;;;3.90;85.63;102280.13;5041071;27;20496;-73
2022/11/27 04:27:58;;;;;;;24.88;9.95;;;;;;;3.86;86.09;102291.38;5048529;27;20084;-73
2022/11/27 04:30:24;;;;;;;24.73;10.35;;;;;;;3.58;85.28;102290.50;5047613;27;20040;-73
2022/11/27 04:32:51;;;;;;;17.75;8.80;;;;;;;3.91;84.32;102287.94;5044380;28;20044;-73
2022/11/27 04:35:17;;;;;;;25.35;10.48;;;;;;;3.88;83.17;102277.53;5049466;28;20045;-74
2022/11/27 04:37:45;;;;;;;21.67;9.48;;;;;;;3.69;83.40;102286.19;5048507;28;20051;-73
2022/11/27 04:40:13;;;;;;;28.48;10.45;;;;;;;3.61;83.81;102293.09;5044845;28;20535;-74
2022/11/27 04:42:39;;;;;;;24.38;10.25;;;;;;;3.21;86.52;102304.22;5050057;28;20049;-74
2022/11/27 04:45:07;;;;;;;26.85;10.82;;;;;;;3.21;88.23;102299.91;5043778;28;20048;-73
2022/11/27 04:47:33;;;;;;;27.60;10.93;;;;;;;3.15;89.52;102281.72;5047229;28;20056;-73
2022/11/27 04:50:00;;;;;;;32.83;12.48;;;;;;;3.13;89.77;102280.88;5066611;28;21512;-74
2022/11/27 04:52:26;;;;;;;26.80;11.98;;;;;;;3.00;89.40;102286.84;5047247;28;20044;-74
2022/11/27 04:54:54;;;;;;;34.63;11.00;;;;;;;3.22;88.44;102283.47;5048258;28;20048;-73
2022/11/27 04:57:21;;;;;;;22.48;10.40;;;;;;;2.75;90.68;102285.88;5048852;28;20053;-74
2022/11/27 04:59:47;;;;;;;40.88;12.48;;;;;;;2.62;93.77;102284.09;5048801;28;20396;-73
2022/11/27 05:02:14;;;;;;;24.83;9.18;;;;;;;2.52;94.29;102286.59;5048153;28;20543;-73
2022/11/27 05:04:40;;;;;;;30.02;11.77;;;;;;;2.85;93.41;102286.78;5043072;28;20099;-73
2022/11/27 05:07:06;;;;;;;24.92;9.93;;;;;;;2.74;94.25;102278.09;5046948;28;20040;-74
2022/11/27 05:09:33;;;;;;;31.85;10.88;;;;;;;3.07;93.65;102282.56;5049591;28;20048;-73
2022/11/27 05:12:01;;;;;;;36.33;11.63;;;;;;;3.17;92.94;102279.16;5041708;28;20071;-73
2022/11/27 05:14:28;;;;;;;29.27;11.13;;;;;;;3.34;91.44;102275.72;5068350;28;20067;-73
2022/11/27 05:16:57;;;;;;;33.95;11.80;;;;;;;3.43;91.99;102280.09;5057124;28;20536;-73
2022/11/27 05:19:25;;;;;;;41.17;12.68;;;;;;;3.14;92.97;102279.16;5056095;28;20488;-75
2022/11/27 05:21:53;;;;;;;28.35;12.00;;;;;;;3.66;91.02;102273.19;5047724;28;20032;-75
2022/11/27 05:24:21;;;;;;;29.60;12.30;;;;;;;3.50;90.70;102263.66;5038501;28;20181;-73
2022/11/27 05:26:48;;;;;;;29.05;11.75;;;;;;;3.17;93.37;102279.16;5052520;28;20043;-73
2022/11/27 05:29:16;;;;;;;39.13;13.38;;;;;;;3.06;93.78;102267.88;5059889;28;20040;-74
2022/11/27 05:31:43;;;;;;;21.20;10.13;;;;;;;3.24;91.76;102260.16;5059391;28;20040;-74
2022/11/27 05:34:10;;;;;;;30.15;12.82;;;;;;;3.09;92.99;102260.97;5069072;28;20496;-74
2022/11/27 05:36:37;;;;;;;32.22;12.02;;;;;;;2.61;96.03;102276.31;5068824;28;20048;-73
2022/11/27 05:39:05;;;;;;;25.83;11.18;;;;;;;2.94;94.41;102282.53;5072025;27;20042;-73
2022/11/27 05:41:32;;;;;;;22.77;9.82;;;;;;;3.47;90.29;102274.03;5062318;27;20051;-73
2022/11/27 05:43:59;;;;;;;26.75;10.90;;;;;;;2.99;93.03;102274.78;5060138;27;20634;-73
2022/11/27 05:46:27;;;;;;;36.55;12.07;;;;;;;2.91;93.33;102260.91;5063087;27;20415;-73
2022/11/27 05:48:53;;;;;;;36.25;13.15;;;;;;;2.82;94.34;102255.69;5061163;28;20059;-74
2022/11/27 05:51:20;;;;;;;30.15;12.40;;;;;;;2.51;97.97;102259.88;5068278;28;20222;-73
2022/11/27 05:53:46;;;;;;;27.05;10.50;;;;;;;2.32;98.20;102247.69;5059078;28;20086;-73
2022/11/27 05:56:15;;;;;;;28.88;10.65;;;;;;;2.39;98.90;102252.91;5068922;28;20126;-73
2022/11/27 05:58:43;;;;;;;31.60;11.38;;;;;;;2.69;96.19;102259.09;5058834;28;20044;-73
2022/11/27 06:01:11;;;;;;;31.88;13.30;;;;;;;2.65;97.22;102252.16;5038952;28;20230;-73
2022/11/27 06:03:39;;;;;;;29.92;11.45;;;;;;;3.04;94.35;102246.25;5051342;28;20126;-74
2022/11/27 06:06:06;;;;;;;38.05;12.18;;;;;;;3.09;92.94;102242.84;5059551;28;20059;-74
2022/11/27 06:08:33;;;;;;;34.00;13.25;;;;;;;2.61;95.60;102245.25;5048923;28;20123;-73
2022/11/27 06:10:59;;;;;;;27.08;12.48;;;;;;;2.64;97.31;102238.34;5067661;28;20047;-73
2022/11/27 06:13:26;;;;;;;28.23;12.02;;;;;;;2.87;95.28;102234.13;5066520;28;20055;-73
2022/11/27 06:15:52;;;;;;;37.13;11.57;;;;;;;2.82;94.18;102235.84;5073879;28;20051;-74
2022/11/27 06:18:19;;;;;;;28.23;11.02;;;;;;;3.01;93.30;102226.41;5057867;28;20040;-73
2022/11/27 06:20:46;;;;;;;35.60;11.88;;;;;;;2.82;94.01;102225.47;5067474;28;20051;-73
2022/11/27 06:23:13;;;;;;;35.42;11.27;;;;;;;2.59;94.96;102219.31;5062056;28;20056;-73
2022/11/27 06:25:39;;;;;;;26.35;9.10;;;;;;;2.35;97.35;102224.41;5052831;28;20044;-73
2022/11/27 06:28:06;;;;;;;24.88;10.20;;;;;;;2.15;100.00;102213.03;5064886;28;20153;-73
2022/11/27 06:30:32;;;;;;;27.10;11.80;;;;;;;2.66;98.54;102215.91;5061657;28;20411;-73
2022/11/27 06:32:59;;;;;;;15.75;7.75;;;;;;;2.09;100.00;102219.06;5071612;28;20040;-73
2022/11/27 06:35:25;;;;;;;27.30;11.63;;;;;;;2.27;100.00;102218.31;5055976;28;20048;-73
2022/11/27 06:37:53;;;;;;;27.67;12.98;;;;;;;2.60;99.65;102213.28;5044095;28;20068;-73
2022/11/27 06:40:19;;;;;;;31.80;11.77;;;;;;;3.13;95.27;102220.38;5054320;28;20412;-73
2022/11/27 06:42:46;;;;;;;30.98;12.93;;;;;;;2.91;94.57;102215.16;5079466;28;20188;-73
2022/11/27 06:45:12;;;;;;;30.52;11.68;;;;;;;2.84;96.38;102209.94;5053032;28;20053;-73
2022/11/27 06:47:39;;;;;;;31.40;12.45;;;;;;;2.81;96.86;102210.78;5062627;28;20052;-73
2022/11/27 06:50:07;;;;;;;30.02;12.57;;;;;;;2.88;96.01;102196.97;5065174;28;20040;-73
2022/11/27 06:52:33;;;;;;;39.38;14.35;;;;;;;2.51;98.79;102200.31;5042461;28;20040;-73
2022/11/27 06:55:01;;;;;;;29.40;12.77;;;;;;;2.98;95.77;102197.03;5051268;28;20051;-73
2022/11/27 06:57:27;;;;;;;27.35;11.05;;;;;;;3.17;93.60;102201.41;5048818;28;20049;-73
2022/11/27 06:59:54;;;;;;;34.83;11.70;;;;;;;3.11;93.76;102201.38;5041090;28;20051;-73
2022/11/27 07:02:20;;;;;;;28.05;12.73;;;;;;;3.43;90.99;102190.19;5050861;28;20044;-73
2022/11/27 07:04:47;;;;;;;32.40;12.35;;;;;;;3.24;92.95;102188.44;5061154;28;20044;-73
2022/11/27 07:07:13;;;;;;;35.90;12.95;;;;;;;3.27;92.96;102195.34;5049288;28;20045;-74
2022/11/27 07:09:39;;;;;;;37.55;13.63;;;;;;;3.86;90.66;102195.38;5051664;28;20048;-73
2022/11/27 07:12:08;;;;;;;29.95;10.95;;;;;;;3.92;88.88;102197.94;5054686;28;20053;-73
2022/11/27 07:14:35;;;;;;;31.55;11.75;;;;;;;3.67;89.47;102197.09;5040284;28;20041;-73
2022/11/27 07:17:01;;;;;;;34.53;13.02;;;;;;;3.43;90.32;102194.53;5051584;28;20052;-73
2022/11/27 07:19:28;;;;;;;31.42;12.10;;;;;;;2.99;95.04;102189.28;5056819;28;20044;-74
2022/11/27 07:21:54;;;;;;;32.70;12.40;;;;;;;3.66;93.62;102195.38;5056179;28;20110;-73
2022/11/27 07:24:20;;;;;;;27.60;11.40;;;;;;;3.03;95.86;102196.16;5053033;28;24822;-73
2022/11/27 07:26:47;;;;;;;29.98;12.38;;;;;;;3.38;94.52;102201.41;5068137;28;20048;-73
2022/11/27 07:29:15;;;;;;;31.13;11.93;;;;;;;3.25;95.63;102195.34;5058324;28;20044;-73
2022/11/27 07:31:41;;;;;;;35.17;11.82;;;;;;;3.53;93.57;102196.25;5066127;28;20054;-73
2022/11/27 07:34:08;;;;;;;30.60;11.70;;;;;;;3.14;95.54;102193.63;5059340;28;20049;-73
2022/11/27 07:36:34;;;;;;;30.55;11.85;;;;;;;2.81;97.75;102208.19;5043707;28;20048;-74
2022/11/27 07:39:01;;;;;;;26.08;10.57;;;;;;;3.00;97.41;102203.06;5048773;28;20054;-73
2022/11/27 07:41:27;;;;;;;30.83;12.07;;;;;;;3.11;96.50;102203.94;5065671;28;20048;-73
2022/11/27 07:43:54;;;;;;;29.80;12.80;;;;;;;3.06;97.08;102205.69;5053812;28;20055;-73
2022/11/27 07:46:24;;;;;;;33.40;12.38;;;;;;;2.67;99.32;102209.88;5040335;28;20049;-73
2022/11/27 07:48:51;;;;;;;31.80;12.48;;;;;;;2.76;99.49;102209.91;5055204;28;20093;-74
2022/11/27 07:51:21;;;;;;;38.72;12.27;;;;;;;3.25;97.46;102195.34;5069634;28;20047;-73
2022/11/27 07:53:50;;;;;;;25.17;9.75;;;;;;;3.27;96.42;102195.34;5067046;28;20659;-73
2022/11/27 07:56:18;;;;;;;23.63;9.82;;;;;;;3.20;96.10;102185.84;5049420;28;20048;-73
2022/11/27 07:58:44;;;;;;;17.58;7.57;;;;;;;3.08;96.46;102178.03;5058990;28;20040;-72
2022/11/27 08:01:12;;;;;;;32.13;12.15;;;;;;;3.04;98.46;102178.88;5055476;28;20051;-72
2022/11/27 08:03:42;;;;;;;23.08;10.25;;;;;;;3.07;98.83;102166.81;5049407;28;20055;-72
2022/11/27 08:06:15;;;;;;;26.38;11.02;;;;;;;3.45;95.92;102166.84;5039320;28;20082;-72
2022/11/27 08:08:41;;;;;;;28.67;13.20;;;;;;;3.15;97.84;102174.59;5034676;28;20125;-72
2022/11/27 08:11:15;;;;;;;26.40;10.07;;;;;;;3.26;97.09;102159.91;5050333;28;20040;-72
2022/11/27 08:13:41;;;;;;;21.85;11.63;;;;;;;3.19;97.86;102158.19;5053160;28;20052;-72
2022/11/27 08:16:08;;;;;;;23.25;11.90;;;;;;;3.54;97.03;102151.31;5074929;28;20039;-71
2022/11/27 08:18:35;;;;;;;27.27;12.20;;;;;;;3.69;95.38;102153.03;5055369;27;20101;-72
2022/11/27 08:21:03;;;;;;;30.63;12.73;;;;;;;3.43;96.52;102142.66;5048290;27;20048;-72
2022/11/27 08:23:29;;;;;;;21.55;10.73;;;;;;;3.61;97.16;102147.84;5052983;27;20504;-71
2022/11/27 08:25:56;;;;;;;29.65;11.48;;;;;;;3.55;97.65;102153.00;5048926;28;20504;-71
2022/11/27 08:28:22;;;;;;;15.95;7.10;;;;;;;3.29;98.07;102144.34;5048626;28;20045;-72
2022/11/27 08:30:55;;;;;;;27.58;10.85;;;;;;;3.56;97.01;102154.75;5069612;28;20043;-73
2022/11/27 08:33:22;;;;;;;22.98;8.80;;;;;;;3.56;96.45;102154.75;5033837;28;20066;-71
2022/11/27 08:35:49;;;;;;;26.52;11.45;;;;;;;3.81;97.50;102145.19;5051665;28;20044;-72
2022/11/27 08:38:17;;;;;;;22.60;11.65;;;;;;;4.29;94.10;102133.81;5052460;28;20483;-71
2022/11/27 08:40:44;;;;;;;22.65;9.88;;;;;;;4.78;91.15;102137.94;5055107;28;20072;-69
2022/11/27 08:43:10;;;;;;;20.20;9.80;;;;;;;5.30;89.46;102140.19;5056323;28;20059;-68
2022/11/27 08:45:37;;;;;;;20.38;10.20;;;;;;;4.89;89.47;102154.31;5049128;28;20048;-67
2022/11/27 08:48:04;;;;;;;17.30;9.40;;;;;;;5.35;88.85;102139.28;5039180;28;20120;-67
2022/11/27 08:50:31;;;;;;;20.23;9.23;;;;;;;5.91;86.13;102142.28;5049615;28;20484;-67
2022/11/27 08:52:57;;;;;;;25.13;10.93;;;;;;;6.15;83.44;102149.81;5060187;28;20047;-68
2022/11/27 08:55:25;;;;;;;18.90;8.75;;;;;;;6.56;81.44;102141.50;5062634;28;20045;-68
2022/11/27 08:57:51;;;;;;;20.92;9.85;;;;;;;6.91;80.29;102143.66;5057611;28;20040;-69
2022/11/27 09:00:19;;;;;;;18.98;8.93;;;;;;;6.85;82.17;102141.97;5063366;28;20076;-69
2022/11/27 09:02:45;;;;;;;28.27;9.65;;;;;;;7.30;77.94;102143.91;5040156;28;20515;-69
2022/11/27 09:05:12;;;;;;;18.45;9.27;;;;;;;7.35;78.71;102142.06;5049985;28;20817;-69
2022/11/27 09:07:39;;;;;;;16.77;8.52;;;;;;;8.07;75.02;102133.81;5048711;28;20052;-69
2022/11/27 09:10:07;;;;;;;16.77;8.98;;;;;;;7.88;76.99;102131.59;5042633;28;20048;-70
2022/11/27 09:12:35;;;;;;;18.15;9.18;;;;;;;6.92;79.33;102127.97;5048787;28;20049;-70
2022/11/27 09:15:01;;;;;;;15.32;8.25;;;;;;;7.65;78.49;102122.41;5047976;28;20044;-70
2022/11/27 09:17:28;;;;;;;20.92;9.00;;;;;;;8.25;74.95;102122.16;5039167;28;20061;-70
2022/11/27 09:19:54;;;;;;;20.02;8.75;;;;;;;8.17;75.43;102124.06;5064262;28;20044;-70
2022/11/27 09:22:21;;;;;;;14.60;8.40;;;;;;;7.72;75.74;102126.63;5067033;28;20051;-70
2022/11/27 09:24:47;;;;;;;15.93;9.23;;;;;;;7.79;77.30;102124.81;5064370;28;20048;-70
2022/11/27 09:27:14;;;;;;;15.95;9.23;;;;;;;8.62;73.93;102123.13;5049999;28;20053;-70
2022/11/27 09:29:41;;;;;;;13.18;8.00;;;;;;;8.38;74.43;102123.69;5052804;28;20052;-70
2022/11/27 09:32:08;;;;;;;16.67;8.70;;;;;;;9.47;71.06;102122.88;5061499;28;20046;-70
2022/11/27 09:34:34;;;;;;;15.20;7.93;;;;;;;9.46;70.71;102129.88;5067114;27;20059;-70
2022/11/27 09:37:01;;;;;;;16.70;8.45;;;;;;;9.26;70.60;102132.13;5061031;27;20045;-70
2022/11/27 09:39:32;;;;;;;13.52;7.28;;;;;;;8.86;71.58;102131.34;5048938;28;20044;-70
2022/11/27 09:42:00;;;;;;;17.58;9.18;;;;;;;8.83;71.87;102129.66;5059843;28;20040;-71
2022/11/27 09:44:33;;;;;;;16.52;8.65;;;;;;;8.38;76.15;102113.22;5046872;28;20048;-71
2022/11/27 09:47:09;;;;;;;15.60;9.23;;;;;;;8.76;74.39;102125.44;5039384;28;20048;-71
2022/11/27 09:49:42;;;;;;;15.07;8.38;;;;;;;9.14;70.98;102116.72;5035987;28;20060;-71
2022/11/27 09:52:15;;;;;;;17.17;8.55;;;;;;;10.03;67.87;102122.25;5053252;28;20541;-65
2022/11/27 09:54:48;;;;;;;13.68;8.00;;;;;;;9.73;68.20;102112.59;5048075;28;20404;-65
2022/11/27 09:57:19;;;;;;;15.23;7.97;;;;;;;9.53;68.93;102113.16;5053402;28;20044;-65
2022/11/27 09:59:50;;;;;;;16.13;7.93;;;;;;;9.03;72.63;102113.50;5052803;28;20056;-65
2022/11/27 10:02:21;;;;;;;15.23;7.93;;;;;;;9.74;69.96;102115.19;5066726;28;20051;-65
2022/11/27 10:04:47;;;;;;;17.75;8.40;;;;;;;9.47;69.26;102105.44;5044230;28;20036;-66
2022/11/27 10:07:27;;;;;;;17.23;8.23;;;;;;;8.88;72.28;102117.31;5047464;28;20055;-66
2022/11/27 10:10:08;;;;;;;16.90;8.05;;;;;;;8.39;73.23;102107.06;5051534;28;20137;-66
2022/11/27 10:12:51;;;;;;;15.68;7.75;;;;;;;8.66;73.28;102098.66;5066550;28;20048;-66
2022/11/27 10:15:36;;;;;;;13.60;6.10;;;;;;;7.87;75.38;102109.00;5056894;28;20040;-66
2022/11/27 10:18:10;;;;;;;16.95;7.57;;;;;;;8.67;74.22;102108.22;5069528;28;20044;-66
2022/11/27 10:20:43;;;;;;;17.33;7.32;;;;;;;9.95;70.67;102107.66;5048918;27;20059;-66
2022/11/27 10:23:18;;;;;;;14.48;7.03;;;;;;;10.12;67.50;102101.06;5054341;28;20442;-66
2022/11/27 10:25:49;;;;;;;15.93;8.18;;;;;;;8.95;70.97;102100.59;5043134;27;20055;-66
2022/11/27 10:28:29;;;;;;;15.32;7.63;;;;;;;8.43;74.84;102103.50;5059403;27;20048;-66
2022/11/27 10:31:00;;;;;;;16.13;7.05;;;;;;;8.58;74.29;102094.47;5027892;28;20037;-66
2022/11/27 10:33:38;;;;;;;14.57;7.22;;;;;;;9.82;71.44;102086.19;5028182;28;20056;-67
2022/11/27 10:36:05;;;;;;;14.48;7.32;;;;;;;9.16;72.23;102088.78;5066022;28;20052;-66
2022/11/27 10:38:36;;;;;;;19.05;8.15;;;;;;;9.23;72.78;102079.88;5038259;28;20071;-66
2022/11/27 10:41:08;;;;;;;13.70;7.88;;;;;;;8.72;74.28;102074.97;5046569;28;20052;-66
2022/11/27 10:43:35;;;;;;;20.67;7.85;;;;;;;8.73;73.84;102068.84;5038155;28;20049;-66
2022/11/27 10:46:05;;;;;;;14.88;7.65;;;;;;;8.62;74.50;102065.63;5049955;28;20071;-66
2022/11/27 10:48:34;;;;;;;16.35;7.88;;;;;;;9.37;73.78;102056.81;5046854;28;20040;-66
2022/11/27 10:51:00;;;;;;;18.88;8.10;;;;;;;9.44;71.59;102058.38;5037095;28;20048;-66
2022/11/27 10:53:30;;;;;;;19.65;9.15;;;;;;;9.33;72.84;102049.94;5058606;28;20048;-66
2022/11/27 10:56:18;;;;;;;13.40;7.30;;;;;;;8.74;72.70;102038.34;5066440;28;20056;-66
2022/11/27 10:58:51;;;;;;;14.32;6.88;;;;;;;8.86;73.57;102039.81;5058188;28;20040;-66
2022/11/27 11:01:20;;;;;;;16.60;7.82;;;;;;;9.27;72.61;102035.25;5067517;28;20047;-66
2022/11/27 11:03:48;;;;;;;14.15;6.80;;;;;;;8.82;73.04;102040.78;5056252;28;20067;-67
2022/11/27 11:06:16;;;;;;;19.55;7.10;;;;;;;8.52;74.84;102024.91;5068433;28;20048;-66
2022/11/27 11:08:43;;;;;;;16.15;7.70;;;;;;;9.32;75.05;102031.66;5050750;28;20045;-66
2022/11/27 11:11:10;;;;;;;16.60;7.07;;;;;;;9.16;72.38;102036.44;5041746;28;20532;-66
2022/11/27 11:13:45;;;;;;;13.57;7.90;;;;;;;8.69;75.64;102034.94;5050852;28;20051;-66
2022/11/27 11:16:18;;;;;;;13.75;8.00;;;;;;;9.03;74.34;102028.03;5041485;28;20113;-66
2022/11/27 11:18:47;;;;;;;16.15;7.85;;;;;;;8.76;75.12;102016.47;5048763;28;20051;-66
2022/11/27 11:21:18;;;;;;;13.40;7.38;;;;;;;9.29;75.08;102006.44;5055700;28;20093;-66
2022/11/27 11:23:59;;;;;;;17.10;7.68;;;;;;;9.44;73.02;102013.88;5048661;28;20392;-67
2022/11/27 11:26:29;;;;;;;14.52;7.82;;;;;;;8.97;73.05;101996.78;5062938;27;20036;-67
2022/11/27 11:28:59;;;;;;;11.30;7.05;;;;;;;9.61;71.94;101995.06;5043050;27;20047;-67